Weather observations for the past three days for
Elbow Lake Municipal Airport
Metric (Imperial)
Date Time (cdt) Wind (kph) Vis. (km) Weather Sky Cond. Temperature (ºC) Relative Humidity Wind Chill (°C) Heat Index (°C) Pressure Precipitation (cm)
Air Dwpt 6 hour altimeter (cm) sea level (mb) 1 hr 3 hr 6 hr
Max. Min.
02 02:15 Calm 16.09 Partly Cloudy SCT100 21 15.9 73% 76 0.0
02 01:55 Calm 16.09 Mostly Cloudy SCT060 SCT070 BKN100 21.2 15.9 72% 76 0.0
02 01:35 N 9 16.09 Overcast SCT060 SCT070 OVC100 21.2 16 72% 75.97 0.0
02 01:15 Calm 16.09 Overcast OVC100 21.3 16.4 74% 76 0.0
02 00:55 NE 7 16.09 Overcast OVC100 21.2 16.7 24 20.4 76% 76 0.0
02 00:35 NE 7 16.09 Mostly Cloudy BKN100 BKN120 21.6 16.4 72% 76.05 0.0
02 00:15 Calm 16.09 Overcast OVC100 20.9 17.2 79% 76.07 0.0
01 23:55 Calm 16.09 Overcast OVC100 21.5 16 71% 76.07 0.0
01 23:35 Calm 16.09 Overcast OVC100 21.5 16.8 75% 76.07 0.0
01 23:15 Calm 16.09 Overcast OVC095 21.3 15.8 71% 76.07 0.0
01 22:55 SE 6 16.09 Mostly Cloudy BKN095 20.5 16.5 78% 76.1 0.0
01 22:35 Calm 16.09 Partly Cloudy SCT095 21.5 17.5 78% 76.1 0.0
01 22:15 Calm 16.09 Overcast OVC095 21.6 15.5 68% 76.1 0.0
01 21:55 Calm 16.09 Mostly Cloudy BKN085 21.6 14.9 66% 76.1 0.0
01 21:35 Calm 16.09 Partly Cloudy SCT085 22.1 14.9 64% 76.07 0.0
01 21:15 NW 6 16.09 Partly Cloudy SCT080 22 16.3 70% 76.05 0.0
01 20:55 Calm 16.09 Partly Cloudy SCT080 SCT120 22.2 16.6 71% 76.05 0.0
01 20:35 Calm 16.09 Partly Cloudy SCT080 SCT100 21.9 15.5 67% 76.05 0.0
01 20:15 W 7 16.09 Mostly Cloudy BKN080 BKN100 22.2 15.1 64% 76.07 0.0
01 19:55 SW 7 16.09 Partly Cloudy SCT080 22.6 15 62% 76.07 0.0
01 19:35 W 7 16.09 Fair CLR 23 15.2 62% 76.05 0.0
01 19:15 W 6 16.09 Fair CLR 23.7 15.3 59% 76.02 0.0
01 18:55 SW 6 16.09 Fair CLR 24 15.1 27.1 24 58% 25 76.05 0.0
01 18:35 SW 6 16.09 Fair CLR 24.5 14.2 53% 26 76.05 0.0
01 18:15 SW 6 16.09 Fair CLR 25.2 13.8 49% 26 76.07 0.0
01 17:55 SW 13 16.09 Fair CLR 26 13.5 46% 26 76.1 0.0
01 17:35 SW 11 16.09 Fair CLR 26.1 13.3 45% 26 76.1 0.0
01 17:15 SW 11 16.09 Fair CLR 26.6 12.3 41% 27 76.1 0.0
01 16:55 SW 9 16.09 Fair CLR 26.6 11.9 40% 27 76.1 0.0
01 16:15 W 6 16.09 Fair CLR 26.6 11.6 39% 27 76.1 0.0
01 15:55 W 6 16.09 Fair CLR 26.6 12.1 41% 27 76.1 0.0
01 15:35 Calm 16.09 Fair CLR 27.1 11.9 39% 27 76.1 0.0
01 15:15 Calm 16.09 Fair CLR 26.7 12 40% 27 76.1 0.0
01 14:55 Calm 16.09 Fair CLR 26.6 12.1 41% 27 76.1 0.0
01 14:35 Calm 16.09 Fair CLR 26 12.1 42% 26 76.12 0.0
01 14:15 Calm 16.09 Fair CLR 25.7 11.6 41% 26 76.12 0.0
01 13:55 N 9 16.09 Fair CLR 25.6 12.2 43% 26 76.12 0.0
01 13:35 NW 7 16.09 Fair CLR 25.6 11.7 42% 26 76.12 0.0
01 13:15 N 7 16.09 Fair CLR 25.5 12.1 43% 26 76.12 0.0
01 12:55 N 6 16.09 Fair CLR 25.5 12.4 25.5 13.2 44% 26 76.15 0.0
01 12:35 Calm 16.09 Fair CLR 25 11.6 43% 26 76.2 0.0
01 12:15 W 6 16.09 Fair CLR 25 12.8 47% 26 76.2 0.0
01 11:55 W 6 16.09 Fair CLR 24.6 12.4 47% 26 76.2 0.0
01 11:35 Calm 16.09 Fair CLR 24 12.5 49% 25 76.2 0.0
01 11:15 N 7 16.09 Fair CLR 23.6 13.1 52% 76.17 0.0
01 10:55 N 9 16.09 Fair CLR 23.5 13.3 53% 76.17 0.0
01 10:35 N 6 16.09 Fair CLR 22.5 14 59% 76.17 0.0
01 10:15 NW 6 16.09 Fair CLR 22.1 14 60% 76.2 0.0
01 09:55 Calm 16.09 Fair CLR 20.5 14.5 69% 76.23 0.0
01 09:35 Calm 16.09 Fair CLR 19.9 14.1 69% 76.23 0.0
01 09:18 Calm 16.09 Fair CLR 18.8 14.7 77% 76.23 0.0
01 08:55 Calm 16.09 Fair CLR 17.8 14.9 83% 76.2 0.0
01 08:35 Calm 16.09 Fair CLR 16.4 14.6 89% 76.2 0.0
01 08:15 SW 6 16.09 Fair CLR 15.5 14.2 92% 76.2 0.0
01 07:55 Calm 16.09 Fair CLR 15.5 14.6 94% 76.17 0.0
01 07:35 Calm 16.09 Fair CLR 14.2 13.3 94% 76.15 0.0
01 07:15 Calm 16.09 Fair CLR 14 13.1 94% 76.15 0.0
01 06:55 S 6 16.09 Fair CLR 13.2 11.8 18.1 13 91% 76.12 0.0
01 06:35 Calm 16.09 Fair CLR 14.3 13.1 93% 76.12 0.0
01 06:15 Calm 16.09 Fair CLR 14.7 13.8 94% 76.1 0.0
01 05:55 NW 6 16.09 Fair CLR 14.9 13.3 90% 76.1 0.0
01 05:35 Calm 16.09 Fair CLR 15.1 13.2 89% 76.1 0.0
01 05:15 Calm 16.09 Fair CLR 14.7 13.8 94% 76.07 0.0
01 04:55 Calm 16.09 Fair CLR 13.4 11.2 87% 76.07 0.0
01 04:35 Calm 16.09 Fair CLR 16.6 13.3 81% 76.02 0.0
01 04:15 Calm 16.09 Fair CLR 17.2 13.5 79% 76.05 0.0
01 03:55 NW 6 16.09 Fair CLR 16.8 14.1 84% 76.05 0.0
01 03:35 Calm 16.09 Fair CLR 16.7 13.9 84% 76.05 0.0
01 03:15 Calm 16.09 Fair CLR 17.1 14 82% 76.02 0.0
01 02:55 Calm 16.09 Fair CLR 17.3 14.5 84% 76.02 0.0
01 02:35 SW 6 16.09 Fair CLR 17 14.3 84% 76.05 0.0
01 02:15 S 7 16.09 Fair CLR 17 14.5 85% 76.05 0.0
01 01:55 SW 6 16.09 Fair CLR 16.1 14.5 90% 76.05 0.0
01 01:35 S 9 16.09 Fair CLR 17.4 14.2 82% 76.07 0.0
01 01:15 S 7 16.09 Fair CLR 17.7 14.9 84% 76.07 0.0
01 00:55 SW 6 16.09 Fair CLR 17.5 14.1 27.7 17.2 81% 76.05 0.0
01 00:35 S 7 16.09 Fair CLR 18 14.2 79% 76.05 0.0
01 00:15 S 9 16.09 Fair CLR 17.3 14 81% 76.02 0.0
31 23:55 S 11 16.09 Fair CLR 17.6 14 80% 76.02 0.0
31 23:35 S 9 16.09 Fair CLR 18.1 14.1 78% 76.02 0.0
31 23:15 S 7 16.09 Fair CLR 18.2 14 77% 76.02 0.0
31 22:55 S 9 16.09 Fair CLR 18.7 14.8 78% 76 0.0
31 22:35 S 7 16.09 Fair CLR 19.5 15.2 76% 76 0.0
31 22:15 S 7 16.09 Fair CLR 20.8 15.7 73% 76 0.0
31 21:55 S 7 16.09 Fair CLR 19.7 15.7 78% 76 0.0
31 21:35 S 11 16.09 Fair CLR 19 14.3 74% 76 0.0
31 21:15 S 11 16.09 Fair CLR 19.7 13.9 69% 75.97 0.0
31 20:55 S 9 16.09 Fair CLR 20.6 14.4 68% 75.97 0.0
31 20:35 S 11 16.09 Fair CLR 20.8 13.6 64% 75.95 0.0
31 20:15 S 9 16.09 Fair CLR 22.5 12.9 55% 75.95 0.0
31 19:55 SW 9 16.09 Fair CLR 23.4 13 52% 75.95 0.0
31 19:35 SW 9 16.09 Fair CLR 25 12.2 45% 26 75.95 0.0
31 19:15 SW 11 16.09 Fair CLR 26.7 10.7 37% 27 75.95 0.0
31 18:55 SW 13 16.09 Fair CLR 27.7 10.6 29.7 26 34% 27 75.95 0.0
31 18:35 SW 13 16.09 Fair CLR 28.5 10.2 32% 28 75.95 0.0
31 18:15 SW 13 16.09 Fair CLR 29 10.8 32% 28 75.92 0.0
31 17:55 SW 15 16.09 Fair CLR 29.3 9.5 29% 28 75.95 0.0
31 17:35 SW 15 16.09 Fair CLR 29.6 7.2 24% 28 75.92 0.0
31 17:15 SW 11 16.09 Fair CLR 29.6 9.1 28% 28 75.92 0.0
31 16:55 W 11 16.09 Fair CLR 29.5 9 28% 28 75.95 0.0
31 16:35 W 13 16.09 Fair CLR 29.3 8.7 28% 28 75.95 0.0
31 16:15 SW 13 16.09 Fair CLR 29.2 8.8 28% 28 75.95 0.0
31 15:55 W 11 16.09 Fair CLR 29.3 9.3 29% 28 75.97 0.0
31 15:35 W 13 16.09 Fair CLR 29.4 8.9 28% 28 75.97 0.0
31 15:15 W 13 16.09 Fair CLR 28.8 9.5 30% 28 75.97 0.0
31 14:55 NW 13 16.09 Fair CLR 28.5 9.9 31% 28 75.97 0.0
31 14:35 NW 9 16.09 Fair CLR 28.1 10 32% 27 75.97 0.0
31 14:15 NW 7 16.09 Fair CLR 27.9 10.3 33% 27 75.97 0.0
31 13:55 NW 11 16.09 Fair CLR 27.5 10.6 35% 27 75.97 0.0
31 13:35 W 9 16.09 Fair CLR 26.9 10.9 37% 27 75.97 0.0
31 13:15 Calm 16.09 Fair CLR 26.6 11.4 39% 27 75.97 0.0
31 12:55 W 13 16.09 Fair CLR 25.7 12 25.9 18 43% 26 76 0.0
31 12:35 NW 11 16.09 Fair CLR 25.7 11.4 41% 26 76 0.0
31 11:55 NW 9 16.09 Fair CLR 24.5 12.6 48% 26 76 0.0
31 11:35 NW 13 16.09 Fair CLR 23.9 12.8 50% 25 76 0.0
31 11:15 NW 13 16.09 Fair CLR 22.9 14.3 58% 76 0.0
31 10:55 NW 6 16.09 Fair CLR 22.3 16.3 69% 76 0.0
31 10:35 NW 11 16.09 Fair CLR 21.6 17.5 78% 75.97 0.0
31 10:15 NW 7 16.09 Fair CLR 20.3 17.3 83% 75.97 0.0
31 09:55 NW 9 16.09 Partly Cloudy SCT008 20 17.5 86% 75.97 0.0
31 09:35 N 9 16.09 Mostly Cloudy BKN006 19.1 17.4 90% 75.97 0.0
31 09:15 N 7 16.09 Overcast OVC006 19.1 17.8 92% 75.92 0.0
31 08:55 N 15 16.09 Overcast OVC006 18.7 17.7 94% 75.92 0.0
31 08:35 NW 13 16.09 Overcast OVC006 18.5 17.5 94% 75.92 0.0
31 08:15 NW 9 16.09 Overcast OVC006 18.5 17.5 94% 75.9 0.0
31 07:55 NW 13 16.09 Overcast OVC006 18.5 17.5 94% 75.87 0.0
31 07:35 NW 17 16.09 Overcast OVC008 18.3 17.5 95% 75.84 0.0
31 07:15 NW 17 16.09 Overcast OVC008 18 17.1 95% 75.82 0.0
31 06:55 NW 13 16.09 Mostly Cloudy BKN008 18.3 17.4 23.5 18.3 95% 75.77 0.0
31 06:35 NW 13 16.09 Mostly Cloudy BKN008 18.7 17.8 95% 75.74 0.0
31 06:15 NW 9 16.09 Mostly Cloudy BKN008 19 18.1 95% 75.74 0.0
31 05:55 NW 11 16.09 Partly Cloudy SCT008 19.5 18.5 94% 75.72 0.0
31 05:35 W 9 16.09 Fair CLR 19.6 18.7 95% 75.72 0.0
31 05:15 NW 11 16.09 Partly Cloudy SCT005 20 19.1 95% 75.69 0.0
31 04:55 W 15 6.44 Fog/Mist BKN003 21.1 20.1 94% 75.67 0.0
31 04:35 W 11 4.02 Fog/Mist SCT003 20.7 19.7 94% 75.62 0.0
31 04:15 W 7 6.44 Fog/Mist CLR 21.1 20.1 94% 75.62 0.0
31 03:55 W 7 4.83 Fog/Mist CLR 21.1 20.2 95% 75.59 0.0
31 03:35 W 6 6.44 Fog/Mist CLR 21.5 20.5 94% 75.57 0.0
31 03:15 Calm 8.05 Fog/Mist SCT007 22 21 94% 75.54 0.0
31 02:55 W 9 11.27 Overcast BKN007 OVC014 22.3 21.4 95% 75.57 0.0
31 02:35 NW 6 11.27 Overcast SCT005 OVC010 22.5 21.5 94% 75.57 0.0
31 02:15 W 11 16.09 Mostly Cloudy BKN012 BKN018 22.8 21.8 94% 75.54 0.0
31 01:55 S 6 16.09 Partly Cloudy SCT018 SCT023 22.5 21.5 94% 75.51 0.0
31 01:35 SW 6 16.09 Fair CLR 22.9 21.9 94% 75.51 0.0
31 01:15 SE 7 16.09 Fair CLR 23.3 22.3 94% 75.49 0.0
31 00:55 SE 9 16.09 Fair CLR 23.4 22.3 26 23.3 94% 75.46 0.0
31 00:35 SE 13 16.09 Fair CLR 23.5 22.2 92% 75.46 0.0
31 00:15 SE 19 16.09 Fair CLR 23.5 22.3 93% 75.46 0.0
30 23:55 E 15 16.09 Fair CLR 23.3 22.1 93% 75.46 0.0
30 23:35 SE 19 16.09 Fair CLR 23.5 22.1 92% 75.49 0.0
30 23:15 E 19 16.09 Fair CLR 23.3 22.1 93% 75.49 0.0
30 22:55 E 15 16.09 Fair CLR 23.6 22.1 91% 75.51 0.0
30 22:35 E 13 16.09 Fair CLR 23.7 22.1 91% 75.54 0.0
30 22:15 E 13 16.09 Fair CLR 24 22.1 89% 24 75.57 0.0
30 21:55 E 11 16.09 Fair CLR 24 21.7 87% 24 75.57 0.0
30 21:35 E 9 16.09 Fair CLR 24 21.6 87% 24 75.57 0.0
30 21:15 E 13 16.09 Fair CLR 24 21.7 87% 24 75.51 0.0
30 20:55 E 13 16.09 Partly Cloudy SCT035 24.5 21.5 83% 25 75.49 0.0
30 20:35 E 13 16.09 Mostly Cloudy BKN035 BKN043 24.7 21.1 80% 25 75.46 0.0
30 20:15 E 13 16.09 Partly Cloudy SCT033 24.8 21.1 80% 26 75.49 0.0
30 19:55 E 13 16.09 Fair CLR 25.2 21.1 78% 26 75.51 0.0
30 19:35 E 11 16.09 Partly Cloudy SCT029 25.6 21.1 76% 27 75.51 0.0
30 19:15 SE 13 16.09 Mostly Cloudy BKN029 26 20.8 73% 27 75.51 0.0
30 18:55 SE 17 16.09 Overcast OVC027 26 20.7 29 26 73% 27 75.51 0.0
30 18:35 SE 15 16.09 Mostly Cloudy BKN025 26.2 20.6 71% 28 75.51 0.0
30 18:15 SE 19 16.09 Mostly Cloudy BKN023 26 20.6 72% 27 75.51 0.0
30 17:55 SE 20 G 30 16.09 Overcast OVC023 26.2 20.5 71% 28 75.54 0.0
30 17:35 SE 19 G 28 16.09 Overcast OVC023 26.6 20.5 69% 28 75.54 0.0
30 17:15 SE 24 G 35 16.09 Overcast OVC023 27.2 20.3 66% 29 75.54 0.0
30 16:55 SE 26 G 37 16.09 Overcast OVC027 27.5 20.2 64% 29 75.57 0.0
30 16:35 SE 24 G 31 16.09 Partly Cloudy SCT027 28 20.1 62% 30 75.54 0.0
30 16:15 SE 22 G 35 16.09 Fair CLR 28.1 20 61% 30 75.54 0.0
30 15:55 SE 26 G 35 16.09 Fair CLR 28.5 19.8 59% 30 75.54 0.0
30 15:35 SE 26 G 37 16.09 Fair CLR 28.3 19.7 60% 30 75.57 0.0
30 15:15 SE 22 G 31 16.09 Partly Cloudy SCT027 28.9 19.8 58% 31 75.59 0.0
30 14:55 SE 22 G 30 16.09 Partly Cloudy SCT025 28.8 20 59% 31 75.62 0.0
30 14:35 E 22 G 30 16.09 Fair CLR 28.1 19.8 61% 30 75.62 0.0
30 14:15 SE 22 G 31 16.09 Fair CLR 27.5 19.5 62% 29 75.62 0.0
30 13:55 E 28 G 33 16.09 Fair CLR 26.7 19.5 65% 28 75.62 0.0
30 13:35 E 28 G 33 16.09 Fair CLR 26.3 19.7 67% 28 75.64 0.0
30 13:15 E 26 G 33 16.09 Fair CLR 26.3 19.6 67% 28 75.67 0.0
30 12:55 E 20 G 33 16.09 Fair CLR 25.9 19.3 25.9 20 67% 27 75.64 0.0
30 12:35 SE 26 G 31 16.09 Partly Cloudy SCT017 25.7 19.3 68% 27 75.67 0.0
30 12:15 SE 24 G 31 16.09 Mostly Cloudy BKN017 BKN045 25.7 19.1 67% 27 75.69 0.0
30 11:55 SE 20 16.09 Mostly Cloudy BKN015 24.3 19.2 73% 25 75.69 0.0
30 11:35 E 26 G 37 16.09 Partly Cloudy SCT013 23.8 19.6 77% 75.69 0.0
30 11:15 SE 22 G 31 16.09 Mostly Cloudy BKN013 23.6 19.7 79% 75.69 0.0
30 10:55 E 20 G 30 16.09 Mostly Cloudy BKN013 23 19.7 82% 75.67 0.0
30 10:35 E 22 G 30 16.09 Overcast OVC011 23.2 19.7 81% 75.67 0.0
30 09:55 E 28 G 35 16.09 Mostly Cloudy BKN009 21.9 19.4 86% 75.72 0.0
30 09:35 E 26 G 31 16.09 Overcast OVC007 21.5 19.5 88% 75.69 0.0
30 09:15 E 17 G 26 16.09 Overcast OVC007 21.1 19.5 91% 75.72 0.0
30 08:55 E 22 G 30 16.09 Overcast OVC007 20.7 19.5 93% 75.72 0.0
30 08:35 E 19 16.09 Overcast OVC005 20.6 19.6 94% 75.74 0.0
30 08:15 E 13 16.09 Overcast OVC005 20.2 19.2 94% 75.74 0.0
30 07:55 E 17 16.09 Overcast OVC005 20.2 19.2 94% 75.74 0.0
30 07:15 E 17 16.09 Partly Cloudy SCT005 20 19.1 95% 75.72 0.0
30 06:55 E 20 16.09 Mostly Cloudy BKN005 20.1 19.1 21 20 94% 75.67 0.0
30 06:35 E 17 16.09 Mostly Cloudy BKN005 20 19.1 95% 75.64 0.0
30 06:15 E 15 16.09 Partly Cloudy SCT005 20 19.1 95% 75.64 0.0
30 05:55 E 15 16.09 Fair CLR 20 19 94% 75.62 0.0
30 05:35 E 15 16.09 Light Rain SCT070 SCT090 20 19.1 95% 75.67 0.0
30 05:15 E 11 16.09 Fair CLR 20.1 19.2 95% 75.72 0.0
30 04:55 E 11 16.09 Fair CLR 20.2 19.3 95% 75.72 0.0
30 04:35 E 11 16.09 Light Rain CLR 20.3 19.3 94% 75.72 0.0
30 04:15 E 13 16.09 Fair CLR 20.5 19.5 94% 75.74 0.0
30 03:55 E 13 16.09 Fair CLR 20.3 19.3 94% 75.72 0.0
30 03:35 E 17 16.09 Fair CLR 20.4 19.4 94% 75.72 0.0
30 03:15 E 17 16.09 Fair CLR 20.5 19.5 94% 75.72 0.0
30 02:55 E 20 16.09 Fair CLR 20.3 19.3 94% 75.69 0.0
30 02:35 E 13 16.09 Fair CLR 20.4 19.5 95% 75.69 0.0
Date Time (cdt) Wind (kph) Vis. (km) Weather Sky Cond. Air Dwpt Max. Min. Relative Humidity Wind Chill (°C) Heat Index (°C) altimeter (cm) sea level (mb) 1 hr 3 hr 6 hr
6 hour
Temperature (ºC) Pressure Precipitation (cm)